sensor_id;sensor_type;location;lat;lon;timestamp;temperature;humidity
71291;DHT22;59073;51.994;4.448;2023-12-22T00:01:23;9.49;73.48
71291;DHT22;59073;51.994;4.448;2023-12-22T00:03:48;9.46;73.45
71291;DHT22;59073;51.994;4.448;2023-12-22T00:06:15;9.36;72.66
71291;DHT22;59073;51.994;4.448;2023-12-22T00:08:41;9.44;71.40
71291;DHT22;59073;51.994;4.448;2023-12-22T00:11:07;9.44;72.34
71291;DHT22;59073;51.994;4.448;2023-12-22T00:13:33;9.40;72.00
71291;DHT22;59073;51.994;4.448;2023-12-22T00:15:59;9.40;71.31
71291;DHT22;59073;51.994;4.448;2023-12-22T00:18:26;9.46;71.63
71291;DHT22;59073;51.994;4.448;2023-12-22T00:20:51;9.49;71.78
71291;DHT22;59073;51.994;4.448;2023-12-22T00:23:17;9.53;72.67
71291;DHT22;59073;51.994;4.448;2023-12-22T00:25:42;9.59;73.22
71291;DHT22;59073;51.994;4.448;2023-12-22T00:28:07;9.63;72.86
71291;DHT22;59073;51.994;4.448;2023-12-22T00:30:33;9.63;71.45
71291;DHT22;59073;51.994;4.448;2023-12-22T00:32:59;9.60;70.64
71291;DHT22;59073;51.994;4.448;2023-12-22T00:35:24;9.57;69.11
71291;DHT22;59073;51.994;4.448;2023-12-22T00:37:50;9.59;68.61
71291;DHT22;59073;51.994;4.448;2023-12-22T00:40:15;9.59;68.83
71291;DHT22;59073;51.994;4.448;2023-12-22T00:42:41;9.49;69.96
71291;DHT22;59073;51.994;4.448;2023-12-22T00:45:06;9.49;68.51
71291;DHT22;59073;51.994;4.448;2023-12-22T00:47:32;9.50;69.78
71291;DHT22;59073;51.994;4.448;2023-12-22T00:50:01;9.43;68.78
71291;DHT22;59073;51.994;4.448;2023-12-22T00:52:27;9.53;68.55
71291;DHT22;59073;51.994;4.448;2023-12-22T00:54:52;9.59;69.55
71291;DHT22;59073;51.994;4.448;2023-12-22T00:57:17;9.46;70.10
71291;DHT22;59073;51.994;4.448;2023-12-22T00:59:43;9.51;69.90
71291;DHT22;59073;51.994;4.448;2023-12-22T01:02:17;9.44;67.46
71291;DHT22;59073;51.994;4.448;2023-12-22T01:04:43;9.44;67.72
71291;DHT22;59073;51.994;4.448;2023-12-22T01:07:10;9.46;68.66
71291;DHT22;59073;51.994;4.448;2023-12-22T01:09:36;9.44;68.01
71291;DHT22;59073;51.994;4.448;2023-12-22T01:12:03;9.42;67.44
71291;DHT22;59073;51.994;4.448;2023-12-22T01:14:29;9.38;66.03
71291;DHT22;59073;51.994;4.448;2023-12-22T01:16:55;9.42;67.02
71291;DHT22;59073;51.994;4.448;2023-12-22T01:19:20;9.51;67.09
71291;DHT22;59073;51.994;4.448;2023-12-22T01:21:46;9.56;68.33
71291;DHT22;59073;51.994;4.448;2023-12-22T01:24:11;9.51;69.22
71291;DHT22;59073;51.994;4.448;2023-12-22T01:26:37;9.51;69.43
71291;DHT22;59073;51.994;4.448;2023-12-22T01:29:02;9.56;67.64
71291;DHT22;59073;51.994;4.448;2023-12-22T01:31:28;9.56;67.10
71291;DHT22;59073;51.994;4.448;2023-12-22T01:33:53;9.44;66.82
71291;DHT22;59073;51.994;4.448;2023-12-22T01:36:19;9.43;65.64
71291;DHT22;59073;51.994;4.448;2023-12-22T01:38:44;9.46;65.39
71291;DHT22;59073;51.994;4.448;2023-12-22T01:41:09;9.49;66.24
71291;DHT22;59073;51.994;4.448;2023-12-22T01:43:35;9.47;67.35
71291;DHT22;59073;51.994;4.448;2023-12-22T01:46:01;9.49;67.20
71291;DHT22;59073;51.994;4.448;2023-12-22T01:48:28;9.51;68.49
71291;DHT22;59073;51.994;4.448;2023-12-22T01:50:56;9.57;68.90
71291;DHT22;59073;51.994;4.448;2023-12-22T01:53:25;9.64;68.99
71291;DHT22;59073;51.994;4.448;2023-12-22T01:55:53;9.69;69.93
71291;DHT22;59073;51.994;4.448;2023-12-22T01:58:20;9.73;71.04
71291;DHT22;59073;51.994;4.448;2023-12-22T02:00:46;9.70;71.07
71291;DHT22;59073;51.994;4.448;2023-12-22T02:03:13;9.74;71.18
71291;DHT22;59073;51.994;4.448;2023-12-22T02:05:41;9.74;71.94
71291;DHT22;59073;51.994;4.448;2023-12-22T02:08:06;9.70;72.48
71291;DHT22;59073;51.994;4.448;2023-12-22T02:10:32;9.70;72.23
71291;DHT22;59073;51.994;4.448;2023-12-22T02:12:57;9.76;72.31
71291;DHT22;59073;51.994;4.448;2023-12-22T02:15:23;9.70;71.68
71291;DHT22;59073;51.994;4.448;2023-12-22T02:17:55;9.69;71.16
71291;DHT22;59073;51.994;4.448;2023-12-22T02:20:24;9.67;70.34
71291;DHT22;59073;51.994;4.448;2023-12-22T02:22:53;9.61;70.61
71291;DHT22;59073;51.994;4.448;2023-12-22T02:25:19;9.66;71.03
71291;DHT22;59073;51.994;4.448;2023-12-22T02:27:48;9.81;70.79
71291;DHT22;59073;51.994;4.448;2023-12-22T02:32:51;9.83;72.02
71291;DHT22;59073;51.994;4.448;2023-12-22T02:35:20;9.79;72.26
71291;DHT22;59073;51.994;4.448;2023-12-22T02:37:47;9.83;72.90
71291;DHT22;59073;51.994;4.448;2023-12-22T02:40:14;9.81;73.00
71291;DHT22;59073;51.994;4.448;2023-12-22T02:42:40;9.77;71.89
71291;DHT22;59073;51.994;4.448;2023-12-22T02:45:06;9.77;72.15
71291;DHT22;59073;51.994;4.448;2023-12-22T02:47:37;9.73;71.67
71291;DHT22;59073;51.994;4.448;2023-12-22T02:50:03;9.70;70.99
71291;DHT22;59073;51.994;4.448;2023-12-22T02:52:28;9.71;70.27
71291;DHT22;59073;51.994;4.448;2023-12-22T02:54:54;9.69;71.06
71291;DHT22;59073;51.994;4.448;2023-12-22T02:57:19;9.63;71.85
71291;DHT22;59073;51.994;4.448;2023-12-22T02:59:45;9.64;71.99
71291;DHT22;59073;51.994;4.448;2023-12-22T03:02:10;9.67;71.74
71291;DHT22;59073;51.994;4.448;2023-12-22T03:04:36;9.71;71.82
71291;DHT22;59073;51.994;4.448;2023-12-22T03:07:01;9.73;71.40
71291;DHT22;59073;51.994;4.448;2023-12-22T03:09:26;9.81;71.08
71291;DHT22;59073;51.994;4.448;2023-12-22T03:11:52;9.76;70.80
71291;DHT22;59073;51.994;4.448;2023-12-22T03:14:19;9.73;70.05
71291;DHT22;59073;51.994;4.448;2023-12-22T03:16:45;9.77;70.19
71291;DHT22;59073;51.994;4.448;2023-12-22T03:19:11;9.71;68.60
71291;DHT22;59073;51.994;4.448;2023-12-22T03:21:36;9.79;68.85
71291;DHT22;59073;51.994;4.448;2023-12-22T03:24:02;9.73;66.55
71291;DHT22;59073;51.994;4.448;2023-12-22T03:26:27;9.69;67.07
71291;DHT22;59073;51.994;4.448;2023-12-22T03:28:53;9.67;66.50
71291;DHT22;59073;51.994;4.448;2023-12-22T03:31:19;9.64;67.11
71291;DHT22;59073;51.994;4.448;2023-12-22T03:33:44;9.66;66.63
71291;DHT22;59073;51.994;4.448;2023-12-22T03:36:10;9.74;66.47
71291;DHT22;59073;51.994;4.448;2023-12-22T03:38:35;9.77;67.12
71291;DHT22;59073;51.994;4.448;2023-12-22T03:41:00;9.80;68.55
71291;DHT22;59073;51.994;4.448;2023-12-22T03:43:26;9.81;68.59
71291;DHT22;59073;51.994;4.448;2023-12-22T03:45:51;9.87;69.27
71291;DHT22;59073;51.994;4.448;2023-12-22T03:48:17;9.83;69.54
71291;DHT22;59073;51.994;4.448;2023-12-22T03:50:42;9.90;69.97
71291;DHT22;59073;51.994;4.448;2023-12-22T03:53:08;9.94;70.22
71291;DHT22;59073;51.994;4.448;2023-12-22T03:55:34;9.98;70.97
71291;DHT22;59073;51.994;4.448;2023-12-22T03:57:59;9.94;70.70
71291;DHT22;59073;51.994;4.448;2023-12-22T04:00:25;9.97;71.05
71291;DHT22;59073;51.994;4.448;2023-12-22T04:02:50;9.97;71.28
71291;DHT22;59073;51.994;4.448;2023-12-22T04:05:15;10.01;72.15
71291;DHT22;59073;51.994;4.448;2023-12-22T04:07:41;10.00;72.78
71291;DHT22;59073;51.994;4.448;2023-12-22T04:10:07;9.95;72.57
71291;DHT22;59073;51.994;4.448;2023-12-22T04:12:32;10.01;73.12
71291;DHT22;59073;51.994;4.448;2023-12-22T04:14:58;10.01;73.20
71291;DHT22;59073;51.994;4.448;2023-12-22T04:17:23;9.97;72.36
71291;DHT22;59073;51.994;4.448;2023-12-22T04:19:49;10.05;72.40
71291;DHT22;59073;51.994;4.448;2023-12-22T04:22:14;10.07;72.97
71291;DHT22;59073;51.994;4.448;2023-12-22T04:24:39;10.04;73.60
71291;DHT22;59073;51.994;4.448;2023-12-22T04:27:05;10.08;74.20
71291;DHT22;59073;51.994;4.448;2023-12-22T04:29:30;10.08;75.18
71291;DHT22;59073;51.994;4.448;2023-12-22T04:31:56;10.14;75.84
71291;DHT22;59073;51.994;4.448;2023-12-22T04:34:21;10.10;76.69
71291;DHT22;59073;51.994;4.448;2023-12-22T04:36:46;10.20;76.97
71291;DHT22;59073;51.994;4.448;2023-12-22T04:39:12;10.17;77.17
71291;DHT22;59073;51.994;4.448;2023-12-22T04:41:37;10.24;77.31
71291;DHT22;59073;51.994;4.448;2023-12-22T04:44:03;10.22;77.28
71291;DHT22;59073;51.994;4.448;2023-12-22T04:46:29;10.20;77.31
71291;DHT22;59073;51.994;4.448;2023-12-22T04:48:55;10.20;77.48
71291;DHT22;59073;51.994;4.448;2023-12-22T04:51:20;10.21;77.12
71291;DHT22;59073;51.994;4.448;2023-12-22T04:53:46;10.15;76.72
71291;DHT22;59073;51.994;4.448;2023-12-22T04:56:12;10.17;76.63
71291;DHT22;59073;51.994;4.448;2023-12-22T04:58:37;10.21;76.65
71291;DHT22;59073;51.994;4.448;2023-12-22T05:01:03;10.18;76.30
71291;DHT22;59073;51.994;4.448;2023-12-22T05:03:28;10.22;76.42
71291;DHT22;59073;51.994;4.448;2023-12-22T05:05:54;10.18;76.48
71291;DHT22;59073;51.994;4.448;2023-12-22T05:08:19;10.22;76.41
71291;DHT22;59073;51.994;4.448;2023-12-22T05:10:44;10.20;76.27
71291;DHT22;59073;51.994;4.448;2023-12-22T05:13:10;10.22;75.95
71291;DHT22;59073;51.994;4.448;2023-12-22T05:15:35;10.24;76.24
71291;DHT22;59073;51.994;4.448;2023-12-22T05:18:01;10.35;76.57
71291;DHT22;59073;51.994;4.448;2023-12-22T05:20:26;10.28;77.68
71291;DHT22;59073;51.994;4.448;2023-12-22T05:22:52;10.31;78.39
71291;DHT22;59073;51.994;4.448;2023-12-22T05:25:17;10.27;78.93
71291;DHT22;59073;51.994;4.448;2023-12-22T05:27:43;10.31;79.31
71291;DHT22;59073;51.994;4.448;2023-12-22T05:30:09;10.18;79.08
71291;DHT22;59073;51.994;4.448;2023-12-22T05:32:35;10.14;79.26
71291;DHT22;59073;51.994;4.448;2023-12-22T05:35:00;10.18;79.05
71291;DHT22;59073;51.994;4.448;2023-12-22T05:37:25;10.14;79.12
71291;DHT22;59073;51.994;4.448;2023-12-22T05:39:51;10.18;78.85
71291;DHT22;59073;51.994;4.448;2023-12-22T05:42:16;10.20;78.77
71291;DHT22;59073;51.994;4.448;2023-12-22T05:44:42;10.27;78.87
71291;DHT22;59073;51.994;4.448;2023-12-22T05:47:08;10.24;78.95
71291;DHT22;59073;51.994;4.448;2023-12-22T05:49:33;10.29;78.85
71291;DHT22;59073;51.994;4.448;2023-12-22T05:51:59;10.29;78.73
71291;DHT22;59073;51.994;4.448;2023-12-22T05:54:24;10.34;78.64
71291;DHT22;59073;51.994;4.448;2023-12-22T05:56:50;10.37;78.46
71291;DHT22;59073;51.994;4.448;2023-12-22T05:59:17;10.41;78.45
71291;DHT22;59073;51.994;4.448;2023-12-22T06:01:43;10.38;78.29
71291;DHT22;59073;51.994;4.448;2023-12-22T06:04:08;10.37;78.04
71291;DHT22;59073;51.994;4.448;2023-12-22T06:06:34;10.39;77.68
71291;DHT22;59073;51.994;4.448;2023-12-22T06:09:01;10.46;77.76
71291;DHT22;59073;51.994;4.448;2023-12-22T06:11:26;10.44;77.89
71291;DHT22;59073;51.994;4.448;2023-12-22T06:13:52;10.46;78.02
71291;DHT22;59073;51.994;4.448;2023-12-22T06:16:18;10.46;77.83
71291;DHT22;59073;51.994;4.448;2023-12-22T06:18:43;10.48;77.90
71291;DHT22;59073;51.994;4.448;2023-12-22T06:21:09;10.52;77.51
71291;DHT22;59073;51.994;4.448;2023-12-22T06:23:35;10.49;77.72
71291;DHT22;59073;51.994;4.448;2023-12-22T06:26:02;10.52;77.66
71291;DHT22;59073;51.994;4.448;2023-12-22T06:28:32;10.56;77.61
71291;DHT22;59073;51.994;4.448;2023-12-22T06:30:58;10.52;77.72
71291;DHT22;59073;51.994;4.448;2023-12-22T06:33:23;10.55;77.71
71291;DHT22;59073;51.994;4.448;2023-12-22T06:35:49;10.58;77.66
71291;DHT22;59073;51.994;4.448;2023-12-22T06:38:19;10.53;77.54
71291;DHT22;59073;51.994;4.448;2023-12-22T06:40:45;10.56;77.20
71291;DHT22;59073;51.994;4.448;2023-12-22T06:43:12;10.50;77.00
71291;DHT22;59073;51.994;4.448;2023-12-22T06:45:38;10.53;77.16
71291;DHT22;59073;51.994;4.448;2023-12-22T06:48:06;10.55;77.29
71291;DHT22;59073;51.994;4.448;2023-12-22T06:50:31;10.53;77.49
71291;DHT22;59073;51.994;4.448;2023-12-22T06:52:57;10.55;77.53
71291;DHT22;59073;51.994;4.448;2023-12-22T06:55:23;10.59;77.53
71291;DHT22;59073;51.994;4.448;2023-12-22T06:57:49;10.60;77.42
71291;DHT22;59073;51.994;4.448;2023-12-22T07:00:15;10.59;77.56
71291;DHT22;59073;51.994;4.448;2023-12-22T07:02:40;10.62;77.61
71291;DHT22;59073;51.994;4.448;2023-12-22T07:07:35;10.65;77.87
71291;DHT22;59073;51.994;4.448;2023-12-22T07:10:01;10.63;78.03
71291;DHT22;59073;51.994;4.448;2023-12-22T07:12:27;10.68;78.18
71291;DHT22;59073;51.994;4.448;2023-12-22T07:14:53;10.66;78.56
71291;DHT22;59073;51.994;4.448;2023-12-22T07:17:18;10.59;78.76
71291;DHT22;59073;51.994;4.448;2023-12-22T07:19:43;10.55;78.91
71291;DHT22;59073;51.994;4.448;2023-12-22T07:22:09;10.53;79.47
71291;DHT22;59073;51.994;4.448;2023-12-22T07:24:34;10.41;80.10
71291;DHT22;59073;51.994;4.448;2023-12-22T07:27:00;10.50;80.05
71291;DHT22;59073;51.994;4.448;2023-12-22T07:29:25;10.53;80.23
71291;DHT22;59073;51.994;4.448;2023-12-22T07:31:51;10.55;80.61
71291;DHT22;59073;51.994;4.448;2023-12-22T07:34:16;10.52;81.28
71291;DHT22;59073;51.994;4.448;2023-12-22T07:36:42;10.37;82.15
71291;DHT22;59073;51.994;4.448;2023-12-22T07:39:08;10.34;82.42
71291;DHT22;59073;51.994;4.448;2023-12-22T07:41:34;10.39;82.32
71291;DHT22;59073;51.994;4.448;2023-12-22T07:44:00;10.37;82.68
71291;DHT22;59073;51.994;4.448;2023-12-22T07:46:26;10.37;82.84
71291;DHT22;59073;51.994;4.448;2023-12-22T07:48:53;10.37;82.96
71291;DHT22;59073;51.994;4.448;2023-12-22T07:51:20;10.42;83.16
71291;DHT22;59073;51.994;4.448;2023-12-22T07:53:45;10.46;83.24
71291;DHT22;59073;51.994;4.448;2023-12-22T07:56:11;10.39;83.63
71291;DHT22;59073;51.994;4.448;2023-12-22T07:58:37;10.48;83.53
71291;DHT22;59073;51.994;4.448;2023-12-22T08:01:04;10.45;83.83
71291;DHT22;59073;51.994;4.448;2023-12-22T08:03:31;10.48;84.09
71291;DHT22;59073;51.994;4.448;2023-12-22T08:05:56;10.50;84.86
71291;DHT22;59073;51.994;4.448;2023-12-22T08:08:21;10.39;85.09
71291;DHT22;59073;51.994;4.448;2023-12-22T08:10:47;10.38;85.27
71291;DHT22;59073;51.994;4.448;2023-12-22T08:13:13;10.48;85.08
71291;DHT22;59073;51.994;4.448;2023-12-22T08:15:39;10.50;84.97
71291;DHT22;59073;51.994;4.448;2023-12-22T08:18:04;10.50;85.10
71291;DHT22;59073;51.994;4.448;2023-12-22T08:20:30;10.58;85.05
71291;DHT22;59073;51.994;4.448;2023-12-22T08:22:55;10.65;84.87
71291;DHT22;59073;51.994;4.448;2023-12-22T08:25:21;10.56;85.18
71291;DHT22;59073;51.994;4.448;2023-12-22T08:27:46;10.62;85.23
71291;DHT22;59073;51.994;4.448;2023-12-22T08:30:12;10.68;85.33
71291;DHT22;59073;51.994;4.448;2023-12-22T08:32:38;10.60;86.05
71291;DHT22;59073;51.994;4.448;2023-12-22T08:35:04;10.68;86.13
71291;DHT22;59073;51.994;4.448;2023-12-22T08:37:30;10.63;86.46
71291;DHT22;59073;51.994;4.448;2023-12-22T08:39:56;10.62;86.49
71291;DHT22;59073;51.994;4.448;2023-12-22T08:42:22;10.60;86.44
71291;DHT22;59073;51.994;4.448;2023-12-22T08:44:48;10.68;86.11
71291;DHT22;59073;51.994;4.448;2023-12-22T08:47:13;10.68;85.76
71291;DHT22;59073;51.994;4.448;2023-12-22T08:49:39;10.69;85.62
71291;DHT22;59073;51.994;4.448;2023-12-22T08:52:04;10.77;85.50
71291;DHT22;59073;51.994;4.448;2023-12-22T08:54:30;10.77;85.28
71291;DHT22;59073;51.994;4.448;2023-12-22T08:56:56;10.80;85.29
71291;DHT22;59073;51.994;4.448;2023-12-22T08:59:21;10.83;85.27
71291;DHT22;59073;51.994;4.448;2023-12-22T09:01:47;10.89;85.07
71291;DHT22;59073;51.994;4.448;2023-12-22T09:04:12;10.90;85.08
71291;DHT22;59073;51.994;4.448;2023-12-22T09:06:38;10.96;84.68
71291;DHT22;59073;51.994;4.448;2023-12-22T09:09:05;10.99;84.58
71291;DHT22;59073;51.994;4.448;2023-12-22T09:11:31;11.01;84.29
71291;DHT22;59073;51.994;4.448;2023-12-22T09:13:57;11.00;84.13
71291;DHT22;59073;51.994;4.448;2023-12-22T09:16:22;11.06;83.93
71291;DHT22;59073;51.994;4.448;2023-12-22T09:18:49;11.14;83.77
71291;DHT22;59073;51.994;4.448;2023-12-22T09:21:16;11.17;83.65
71291;DHT22;59073;51.994;4.448;2023-12-22T09:23:44;11.11;83.77
71291;DHT22;59073;51.994;4.448;2023-12-22T09:26:14;11.17;83.84
71291;DHT22;59073;51.994;4.448;2023-12-22T09:28:40;11.17;83.98
71291;DHT22;59073;51.994;4.448;2023-12-22T09:31:09;11.19;83.99
71291;DHT22;59073;51.994;4.448;2023-12-22T09:33:35;11.24;83.94
71291;DHT22;59073;51.994;4.448;2023-12-22T09:36:01;11.23;84.12
71291;DHT22;59073;51.994;4.448;2023-12-22T09:38:26;11.19;84.30
71291;DHT22;59073;51.994;4.448;2023-12-22T09:40:53;11.21;84.24
71291;DHT22;59073;51.994;4.448;2023-12-22T09:43:20;11.23;84.23
71291;DHT22;59073;51.994;4.448;2023-12-22T09:45:46;11.26;84.15
71291;DHT22;59073;51.994;4.448;2023-12-22T09:48:13;11.31;83.69
71291;DHT22;59073;51.994;4.448;2023-12-22T09:50:45;11.31;83.56
71291;DHT22;59073;51.994;4.448;2023-12-22T09:53:13;11.27;83.46
71291;DHT22;59073;51.994;4.448;2023-12-22T09:55:45;11.34;82.87
71291;DHT22;59073;51.994;4.448;2023-12-22T09:58:13;11.32;82.71
71291;DHT22;59073;51.994;4.448;2023-12-22T10:00:40;11.40;82.66
71291;DHT22;59073;51.994;4.448;2023-12-22T10:03:07;11.42;82.78
71291;DHT22;59073;51.994;4.448;2023-12-22T10:05:33;11.41;82.48
71291;DHT22;59073;51.994;4.448;2023-12-22T10:08:00;11.47;82.27
71291;DHT22;59073;51.994;4.448;2023-12-22T10:10:28;11.48;82.18
71291;DHT22;59073;51.994;4.448;2023-12-22T10:12:59;11.50;82.31
71291;DHT22;59073;51.994;4.448;2023-12-22T10:15:25;11.51;82.38
71291;DHT22;59073;51.994;4.448;2023-12-22T10:17:52;11.62;82.28
71291;DHT22;59073;51.994;4.448;2023-12-22T10:20:17;11.65;82.14
71291;DHT22;59073;51.994;4.448;2023-12-22T10:22:43;11.68;81.18
71291;DHT22;59073;51.994;4.448;2023-12-22T10:25:08;11.68;81.66
71291;DHT22;59073;51.994;4.448;2023-12-22T10:27:36;11.69;81.64
71291;DHT22;59073;51.994;4.448;2023-12-22T10:30:02;11.62;81.56
71291;DHT22;59073;51.994;4.448;2023-12-22T10:32:28;11.62;81.39
71291;DHT22;59073;51.994;4.448;2023-12-22T10:34:56;11.65;81.42
71291;DHT22;59073;51.994;4.448;2023-12-22T10:37:24;11.62;81.41
71291;DHT22;59073;51.994;4.448;2023-12-22T10:39:54;11.61;81.29
71291;DHT22;59073;51.994;4.448;2023-12-22T10:42:20;11.62;81.29
71291;DHT22;59073;51.994;4.448;2023-12-22T10:44:46;11.62;81.20
71291;DHT22;59073;51.994;4.448;2023-12-22T10:47:12;11.68;80.95
71291;DHT22;59073;51.994;4.448;2023-12-22T10:49:37;11.71;81.46
71291;DHT22;59073;51.994;4.448;2023-12-22T10:52:03;11.69;81.05
71291;DHT22;59073;51.994;4.448;2023-12-22T10:54:29;11.71;81.28
71291;DHT22;59073;51.994;4.448;2023-12-22T10:56:59;11.74;81.48
71291;DHT22;59073;51.994;4.448;2023-12-22T10:59:29;11.72;81.46
71291;DHT22;59073;51.994;4.448;2023-12-22T11:01:57;11.72;81.64
71291;DHT22;59073;51.994;4.448;2023-12-22T11:04:29;11.74;81.68
71291;DHT22;59073;51.994;4.448;2023-12-22T11:06:58;11.77;81.56
71291;DHT22;59073;51.994;4.448;2023-12-22T11:09:26;11.72;81.41
71291;DHT22;59073;51.994;4.448;2023-12-22T11:11:57;11.75;81.55
71291;DHT22;59073;51.994;4.448;2023-12-22T11:14:23;11.79;81.39
71291;DHT22;59073;51.994;4.448;2023-12-22T11:16:52;11.79;81.49
71291;DHT22;59073;51.994;4.448;2023-12-22T11:19:20;11.79;81.39
71291;DHT22;59073;51.994;4.448;2023-12-22T11:21:47;11.85;81.55
71291;DHT22;59073;51.994;4.448;2023-12-22T11:24:13;11.92;81.44
71291;DHT22;59073;51.994;4.448;2023-12-22T11:26:42;11.88;81.04
71291;DHT22;59073;51.994;4.448;2023-12-22T11:29:11;11.82;80.90
71291;DHT22;59073;51.994;4.448;2023-12-22T11:31:39;11.82;81.00
71291;DHT22;59073;51.994;4.448;2023-12-22T11:34:07;11.86;80.80
71291;DHT22;59073;51.994;4.448;2023-12-22T11:36:34;11.85;80.96
71291;DHT22;59073;51.994;4.448;2023-12-22T11:39:00;11.82;81.06
71291;DHT22;59073;51.994;4.448;2023-12-22T11:41:30;11.85;80.60
71291;DHT22;59073;51.994;4.448;2023-12-22T11:43:58;11.86;80.35
71291;DHT22;59073;51.994;4.448;2023-12-22T11:46:25;11.81;80.41
71291;DHT22;59073;51.994;4.448;2023-12-22T11:48:52;11.81;80.51
71291;DHT22;59073;51.994;4.448;2023-12-22T11:51:19;11.82;80.20
71291;DHT22;59073;51.994;4.448;2023-12-22T11:53:45;11.82;80.31
71291;DHT22;59073;51.994;4.448;2023-12-22T11:56:12;11.78;80.05
71291;DHT22;59073;51.994;4.448;2023-12-22T11:58:48;11.79;80.07
71291;DHT22;59073;51.994;4.448;2023-12-22T12:01:23;11.75;79.92
71291;DHT22;59073;51.994;4.448;2023-12-22T12:03:50;11.75;79.82
71291;DHT22;59073;51.994;4.448;2023-12-22T12:08:55;11.82;80.00
71291;DHT22;59073;51.994;4.448;2023-12-22T12:11:22;11.77;79.98
71291;DHT22;59073;51.994;4.448;2023-12-22T12:13:49;11.81;79.92
71291;DHT22;59073;51.994;4.448;2023-12-22T12:16:19;11.85;80.00
71291;DHT22;59073;51.994;4.448;2023-12-22T12:18:47;11.83;80.21
71291;DHT22;59073;51.994;4.448;2023-12-22T12:21:13;11.86;80.24
71291;DHT22;59073;51.994;4.448;2023-12-22T12:23:41;11.92;80.25
71291;DHT22;59073;51.994;4.448;2023-12-22T12:26:07;11.91;80.47
71291;DHT22;59073;51.994;4.448;2023-12-22T12:28:35;11.99;80.52
71291;DHT22;59073;51.994;4.448;2023-12-22T12:31:04;11.89;80.35
71291;DHT22;59073;51.994;4.448;2023-12-22T12:33:30;11.89;80.56
71291;DHT22;59073;51.994;4.448;2023-12-22T12:35:58;11.88;80.65
71291;DHT22;59073;51.994;4.448;2023-12-22T12:41:04;11.85;80.82
71291;DHT22;59073;51.994;4.448;2023-12-22T12:43:31;11.86;80.90
71291;DHT22;59073;51.994;4.448;2023-12-22T12:46:05;11.95;80.85
71291;DHT22;59073;51.994;4.448;2023-12-22T12:48:31;11.86;81.13
71291;DHT22;59073;51.994;4.448;2023-12-22T12:51:06;11.81;81.14
71291;DHT22;59073;51.994;4.448;2023-12-22T12:53:33;11.92;81.13
71291;DHT22;59073;51.994;4.448;2023-12-22T12:55:59;11.89;81.10
71291;DHT22;59073;51.994;4.448;2023-12-22T12:58:29;11.83;81.06
71291;DHT22;59073;51.994;4.448;2023-12-22T13:01:07;11.85;81.33
71291;DHT22;59073;51.994;4.448;2023-12-22T13:03:33;11.81;81.44
71291;DHT22;59073;51.994;4.448;2023-12-22T13:06:06;11.78;81.84
71291;DHT22;59073;51.994;4.448;2023-12-22T13:08:32;11.81;81.61
71291;DHT22;59073;51.994;4.448;2023-12-22T13:11:01;11.83;81.59
71291;DHT22;59073;51.994;4.448;2023-12-22T13:13:27;11.77;81.72
71291;DHT22;59073;51.994;4.448;2023-12-22T13:15:52;11.75;81.85
71291;DHT22;59073;51.994;4.448;2023-12-22T13:18:18;11.75;81.60
71291;DHT22;59073;51.994;4.448;2023-12-22T13:20:43;11.72;81.59
71291;DHT22;59073;51.994;4.448;2023-12-22T13:23:11;11.83;81.33
71291;DHT22;59073;51.994;4.448;2023-12-22T13:25:40;11.83;81.10
71291;DHT22;59073;51.994;4.448;2023-12-22T13:28:05;11.82;81.04
71291;DHT22;59073;51.994;4.448;2023-12-22T13:30:37;11.81;80.94
71291;DHT22;59073;51.994;4.448;2023-12-22T13:33:07;11.83;80.60
71291;DHT22;59073;51.994;4.448;2023-12-22T13:35:34;11.86;80.52
71291;DHT22;59073;51.994;4.448;2023-12-22T13:38:05;11.88;80.57
71291;DHT22;59073;51.994;4.448;2023-12-22T13:40:31;11.88;80.46
71291;DHT22;59073;51.994;4.448;2023-12-22T13:42:58;11.86;80.61
71291;DHT22;59073;51.994;4.448;2023-12-22T13:45:26;11.85;80.52
71291;DHT22;59073;51.994;4.448;2023-12-22T13:47:52;11.83;80.79
71291;DHT22;59073;51.994;4.448;2023-12-22T13:50:19;11.85;80.76
71291;DHT22;59073;51.994;4.448;2023-12-22T13:52:49;11.83;80.41
71291;DHT22;59073;51.994;4.448;2023-12-22T13:55:17;11.91;80.39
71291;DHT22;59073;51.994;4.448;2023-12-22T13:57:43;11.92;80.43
71291;DHT22;59073;51.994;4.448;2023-12-22T14:02:44;11.85;80.23
71291;DHT22;59073;51.994;4.448;2023-12-22T14:05:10;11.91;80.46
71291;DHT22;59073;51.994;4.448;2023-12-22T14:07:35;11.86;80.57
71291;DHT22;59073;51.994;4.448;2023-12-22T14:10:05;11.85;80.78
71291;DHT22;59073;51.994;4.448;2023-12-22T14:12:30;11.82;80.91
71291;DHT22;59073;51.994;4.448;2023-12-22T14:14:56;11.75;81.17
71291;DHT22;59073;51.994;4.448;2023-12-22T14:17:21;11.75;81.18
71291;DHT22;59073;51.994;4.448;2023-12-22T14:19:47;11.74;81.17
71291;DHT22;59073;51.994;4.448;2023-12-22T14:22:15;11.74;81.31
71291;DHT22;59073;51.994;4.448;2023-12-22T14:24:40;11.74;81.05
71291;DHT22;59073;51.994;4.448;2023-12-22T14:27:06;11.75;81.11
71291;DHT22;59073;51.994;4.448;2023-12-22T14:29:31;11.77;80.81
71291;DHT22;59073;51.994;4.448;2023-12-22T14:31:58;11.74;80.73
71291;DHT22;59073;51.994;4.448;2023-12-22T14:34:24;11.64;80.64
71291;DHT22;59073;51.994;4.448;2023-12-22T14:36:49;11.72;80.78
71291;DHT22;59073;51.994;4.448;2023-12-22T14:39:15;11.75;80.39
71291;DHT22;59073;51.994;4.448;2023-12-22T14:41:41;11.68;80.30
71291;DHT22;59073;51.994;4.448;2023-12-22T14:44:08;11.74;80.36
71291;DHT22;59073;51.994;4.448;2023-12-22T14:46:37;11.75;80.39
71291;DHT22;59073;51.994;4.448;2023-12-22T14:49:03;11.74;80.18
71291;DHT22;59073;51.994;4.448;2023-12-22T14:51:28;11.75;80.18
71291;DHT22;59073;51.994;4.448;2023-12-22T14:53:54;11.72;80.14
71291;DHT22;59073;51.994;4.448;2023-12-22T14:56:20;11.75;80.10
71291;DHT22;59073;51.994;4.448;2023-12-22T14:58:45;11.74;80.11
71291;DHT22;59073;51.994;4.448;2023-12-22T15:01:14;11.74;80.09
71291;DHT22;59073;51.994;4.448;2023-12-22T15:03:39;11.75;80.04
71291;DHT22;59073;51.994;4.448;2023-12-22T15:06:05;11.78;79.89
71291;DHT22;59073;51.994;4.448;2023-12-22T15:08:31;11.77;80.05
71291;DHT22;59073;51.994;4.448;2023-12-22T15:10:56;11.78;79.85
71291;DHT22;59073;51.994;4.448;2023-12-22T15:13:22;11.77;80.18
71291;DHT22;59073;51.994;4.448;2023-12-22T15:15:47;11.78;80.08
71291;DHT22;59073;51.994;4.448;2023-12-22T15:18:12;11.72;80.18
71291;DHT22;59073;51.994;4.448;2023-12-22T15:20:38;11.74;80.21
71291;DHT22;59073;51.994;4.448;2023-12-22T15:23:03;11.71;80.45
71291;DHT22;59073;51.994;4.448;2023-12-22T15:25:29;11.72;80.27
71291;DHT22;59073;51.994;4.448;2023-12-22T15:27:54;11.65;80.37
71291;DHT22;59073;51.994;4.448;2023-12-22T15:30:20;11.72;80.53
71291;DHT22;59073;51.994;4.448;2023-12-22T15:32:46;11.71;80.63
71291;DHT22;59073;51.994;4.448;2023-12-22T15:35:11;11.65;80.79
71291;DHT22;59073;51.994;4.448;2023-12-22T15:37:37;11.68;80.62
71291;DHT22;59073;51.994;4.448;2023-12-22T15:40:03;11.69;80.67
71291;DHT22;59073;51.994;4.448;2023-12-22T15:42:29;11.62;80.60